createdAt,value
2019-04-16T00:02:42.819Z,27.50
2019-04-16T00:05:14.171Z,25.77
2019-04-16T00:07:57.846Z,27.67
2019-04-16T00:10:29.225Z,26.53
2019-04-16T00:12:57.915Z,27.97
2019-04-16T00:15:24.738Z,26.80
2019-04-16T00:17:51.679Z,25.90
2019-04-16T00:20:18.884Z,26.33
2019-04-16T00:23:05.268Z,25.50
2019-04-16T00:25:32.400Z,25.77
2019-04-16T00:28:00.109Z,25.97
2019-04-16T00:30:27.507Z,24.63
2019-04-16T00:32:54.347Z,26.63
2019-04-16T00:35:21.075Z,26.60
2019-04-16T00:37:51.401Z,26.47
2019-04-16T00:40:16.592Z,24.00
2019-04-16T00:42:43.351Z,24.07
2019-04-16T00:45:10.397Z,24.20
2019-04-16T00:47:37.327Z,27.47
2019-04-16T00:50:05.422Z,25.50
2019-04-16T00:52:36.718Z,24.27
2019-04-16T00:55:01.819Z,24.97
2019-04-16T00:57:28.615Z,24.47
2019-04-16T00:59:56.505Z,24.20
2019-04-16T01:02:23.513Z,24.67
2019-04-16T01:04:50.246Z,23.27
2019-04-16T01:07:16.885Z,23.67
2019-04-16T01:09:43.738Z,24.00
2019-04-16T01:12:10.547Z,24.60
2019-04-16T01:14:37.200Z,23.93
2019-04-16T01:17:05.248Z,22.70
2019-04-16T01:19:33.988Z,25.50
2019-04-16T01:22:00.785Z,23.37
2019-04-16T01:24:28.286Z,24.70
2019-04-16T01:26:55.456Z,24.53
2019-04-16T01:29:23.786Z,25.23
2019-04-16T01:32:10.637Z,24.30
2019-04-16T01:34:55.470Z,23.53
2019-04-16T01:37:26.794Z,24.97
2019-04-16T01:39:56.444Z,24.57
2019-04-16T01:42:23.678Z,24.10
2019-04-16T01:44:51.024Z,23.20
2019-04-16T01:47:21.008Z,24.93
2019-04-16T01:49:47.780Z,24.27
2019-04-16T01:52:18.684Z,23.70
2019-04-16T01:54:43.239Z,24.43
2019-04-16T01:57:10.073Z,25.07
2019-04-16T01:59:36.685Z,23.53
2019-04-16T02:02:03.579Z,24.93
2019-04-16T02:04:31.306Z,23.53
2019-04-16T02:06:58.364Z,26.33
2019-04-16T02:09:25.194Z,25.50
2019-04-16T02:11:51.944Z,24.07
2019-04-16T02:14:22.125Z,23.87
2019-04-16T02:16:47.596Z,24.63
2019-04-16T02:19:14.295Z,24.73
2019-04-16T02:21:41.451Z,25.77
2019-04-16T02:24:08.940Z,24.27
2019-04-16T02:26:35.584Z,23.53
2019-04-16T02:29:02.335Z,25.23
2019-04-16T02:31:29.006Z,25.37
2019-04-16T02:33:56.563Z,24.63
2019-04-16T02:36:23.271Z,24.87
2019-04-16T02:38:53.242Z,25.43
2019-04-16T02:41:22.248Z,24.70
2019-04-16T02:43:47.569Z,23.63
2019-04-16T02:46:14.546Z,23.47
2019-04-16T02:48:41.315Z,25.27
2019-04-16T02:51:09.876Z,26.77
2019-04-16T02:53:50.335Z,25.63
2019-04-16T02:56:27.949Z,25.47
2019-04-16T02:58:59.211Z,23.67
2019-04-16T03:01:27.963Z,24.63
2019-04-16T03:03:59.511Z,25.40
2019-04-16T03:06:26.285Z,26.17
2019-04-16T03:08:53.547Z,24.63
2019-04-16T03:11:20.367Z,24.13
2019-04-16T03:13:47.471Z,24.83
2019-04-16T03:16:37.705Z,26.23
2019-04-16T03:19:03.918Z,25.27
2019-04-16T03:21:30.553Z,24.70
2019-04-16T03:23:57.574Z,25.73
2019-04-16T03:26:25.611Z,25.20
2019-04-16T03:28:55.608Z,26.23
2019-04-16T03:31:23.601Z,25.93
2019-04-16T03:33:51.135Z,26.07
2019-04-16T03:36:18.119Z,25.07
2019-04-16T03:38:44.891Z,24.47
2019-04-16T03:41:11.670Z,25.43
2019-04-16T03:43:38.393Z,25.07
2019-04-16T03:46:05.129Z,27.10
2019-04-16T03:48:31.795Z,26.17
2019-04-16T03:51:00.514Z,24.97
2019-04-16T03:53:30.793Z,25.33
2019-04-16T03:55:58.507Z,25.97
2019-04-16T03:58:25.995Z,23.93
2019-04-16T04:00:52.967Z,25.07
2019-04-16T04:03:19.715Z,24.97
2019-04-16T04:05:56.939Z,25.53
2019-04-16T04:08:24.497Z,24.10
2019-04-16T04:10:51.385Z,24.43
2019-04-16T04:13:18.894Z,24.43
2019-04-16T04:15:46.049Z,25.63
2019-04-16T04:18:12.927Z,25.10
2019-04-16T04:20:40.169Z,26.03
2019-04-16T04:23:06.951Z,22.50
2019-04-16T04:25:36.263Z,24.03
2019-04-16T04:28:02.155Z,24.30
2019-04-16T04:30:29.681Z,22.70
2019-04-16T04:32:56.401Z,22.23
2019-04-16T04:35:24.261Z,24.53
2019-04-16T04:37:50.869Z,24.53
2019-04-16T04:40:17.726Z,24.33
2019-04-16T04:42:44.795Z,25.67
2019-04-16T04:45:11.814Z,23.43
2019-04-16T04:47:38.698Z,24.33
2019-04-16T04:50:05.834Z,25.73
2019-04-16T04:52:32.579Z,24.57
2019-04-16T04:54:59.481Z,23.27
2019-04-16T04:57:28.429Z,23.87
2019-04-16T04:59:55.253Z,22.37
2019-04-16T05:02:21.979Z,26.80
2019-04-16T05:04:52.440Z,24.87
2019-04-16T05:07:20.224Z,23.60
2019-04-16T05:09:46.933Z,26.80
2019-04-16T05:12:13.593Z,28.47
2019-04-16T05:14:42.174Z,25.87
2019-04-16T05:17:08.983Z,26.50
2019-04-16T05:19:35.757Z,25.07
2019-04-16T05:22:02.523Z,25.53
2019-04-16T05:24:29.978Z,27.10
2019-04-16T05:26:56.906Z,25.20
2019-04-16T05:29:23.558Z,25.67
2019-04-16T05:31:54.488Z,24.87
2019-04-16T05:34:21.604Z,25.77
2019-04-16T05:36:48.375Z,24.83
2019-04-16T05:39:15.036Z,28.30
2019-04-16T05:41:41.729Z,27.63
2019-04-16T05:44:08.393Z,25.63
2019-04-16T05:46:35.248Z,26.00
2019-04-16T05:49:02.120Z,25.47
2019-04-16T05:51:31.494Z,25.73
2019-04-16T05:54:02.779Z,24.43
2019-04-16T05:56:37.686Z,26.67
2019-04-16T05:59:04.437Z,26.47
2019-04-16T06:01:36.175Z,25.30
2019-04-16T06:04:03.244Z,24.77
2019-04-16T06:06:31.853Z,24.63
2019-04-16T06:08:58.436Z,26.30
2019-04-16T06:11:29.614Z,24.40
2019-04-16T06:14:04.830Z,24.13
2019-04-16T06:16:33.644Z,25.00
2019-04-16T06:19:20.848Z,25.83
2019-04-16T06:22:04.704Z,21.87
2019-04-16T06:24:50.376Z,25.33
2019-04-16T06:27:22.350Z,23.90
2019-04-16T06:29:50.953Z,24.47
2019-04-16T06:32:19.518Z,22.77
2019-04-16T06:34:53.813Z,24.20
2019-04-16T06:37:26.797Z,24.93
2019-04-16T06:40:00.704Z,25.33
2019-04-16T06:42:38.482Z,24.67
2019-04-16T06:45:07.812Z,23.83
2019-04-16T06:47:45.599Z,23.57
2019-04-16T06:50:30.612Z,23.67
2019-04-16T06:53:04.811Z,25.10
2019-04-16T06:55:42.999Z,22.33
2019-04-16T06:58:21.015Z,23.90
2019-04-16T07:01:05.905Z,24.80
2019-04-16T07:03:38.536Z,22.43
2019-04-16T07:06:22.519Z,24.97
2019-04-16T07:08:52.416Z,24.57
2019-04-16T07:11:21.084Z,24.00
2019-04-16T07:13:47.749Z,24.93
2019-04-16T07:16:14.483Z,23.47
2019-04-16T07:18:41.108Z,23.77
2019-04-16T07:21:07.748Z,23.90
2019-04-16T07:23:34.757Z,22.17
2019-04-16T07:26:03.812Z,22.33
2019-04-16T07:28:34.999Z,23.20
2019-04-16T07:31:14.885Z,20.67
2019-04-16T07:33:58.330Z,22.63
2019-04-16T07:36:43.696Z,21.83
2019-04-16T07:39:30.055Z,22.63
2019-04-16T07:42:10.339Z,23.20
2019-04-16T07:44:36.414Z,22.03
2019-04-16T07:47:06.437Z,23.73
2019-04-16T07:49:38.242Z,24.17
2019-04-16T07:52:25.150Z,21.43
2019-04-16T07:54:56.284Z,22.63
2019-04-16T07:57:24.456Z,20.83
2019-04-16T07:59:51.346Z,21.00
2019-04-16T08:02:21.605Z,21.50
2019-04-16T08:04:46.715Z,23.60
2019-04-16T08:07:13.490Z,22.77
2019-04-16T08:09:40.168Z,24.13
2019-04-16T08:28:48.047Z,23.23
2019-04-16T08:31:16.574Z,23.40
2019-04-16T08:33:43.418Z,24.50
2019-04-16T08:36:10.246Z,23.03
2019-04-16T08:38:36.877Z,22.50
2019-04-16T08:41:03.637Z,24.57
2019-04-16T08:43:30.484Z,24.67
2019-04-16T08:45:57.234Z,23.93
2019-04-16T08:48:23.882Z,22.30
2019-04-16T08:50:50.514Z,22.23
2019-04-16T08:53:17.444Z,24.60
2019-04-16T08:55:44.294Z,21.63
2019-04-16T08:58:12.788Z,23.60
2019-04-16T09:00:39.959Z,22.17
2019-04-16T09:03:06.791Z,22.40
2019-04-16T09:05:33.506Z,24.53
2019-04-16T09:08:12.227Z,24.37
2019-04-16T09:10:31.147Z,23.77
2019-04-16T09:13:03.790Z,23.93
2019-04-16T09:15:30.248Z,22.57
2019-04-16T09:18:13.749Z,24.90
2019-04-16T09:20:41.979Z,24.53
2019-04-16T09:23:08.875Z,24.53
2019-04-16T09:25:37.573Z,24.53
2019-04-16T09:28:26.060Z,24.67
2019-04-16T09:31:12.986Z,23.47
2019-04-16T09:33:55.708Z,23.40
2019-04-16T09:36:40.677Z,25.90
2019-04-16T09:39:12.339Z,23.57
2019-04-16T09:41:40.883Z,24.60
2019-04-16T09:44:07.519Z,24.03
2019-04-16T09:46:50.499Z,24.53
2019-04-16T09:49:04.855Z,24.40
2019-04-16T09:51:31.471Z,24.47
2019-04-16T09:53:58.235Z,25.70
2019-04-16T09:56:30.277Z,25.80
2019-04-16T09:59:00.671Z,24.90
2019-04-16T10:01:35.000Z,25.87
2019-04-16T10:04:03.730Z,25.73
2019-04-16T10:06:30.605Z,23.63
2019-04-16T10:08:57.272Z,24.47
2019-04-16T10:11:24.026Z,25.37
2019-04-16T10:13:50.810Z,24.60
2019-04-16T10:16:19.627Z,24.73
2019-04-16T10:18:46.244Z,23.47
2019-04-16T10:21:13.005Z,23.23
2019-04-16T10:24:00.031Z,22.63
2019-04-16T10:26:26.834Z,24.53
2019-04-16T10:28:54.775Z,22.63
2019-04-16T10:31:23.651Z,24.27
2019-04-16T10:33:50.278Z,23.73
2019-04-16T10:36:16.943Z,22.40
2019-04-16T10:38:51.408Z,25.90
2019-04-16T10:41:25.717Z,24.43
2019-04-16T10:43:54.499Z,24.17
2019-04-16T10:46:41.199Z,22.37
2019-04-16T10:49:12.532Z,24.07
2019-04-16T10:51:41.185Z,24.53
2019-04-16T10:54:18.760Z,25.53
2019-04-16T10:56:47.285Z,24.50
2019-04-16T10:59:19.117Z,24.97
2019-04-16T11:02:15.885Z,22.87
2019-04-16T11:05:02.988Z,31.50
2019-04-16T11:07:32.053Z,25.47
2019-04-16T11:09:58.943Z,22.67
2019-04-16T11:12:25.806Z,24.67
2019-04-16T11:14:52.807Z,25.63
2019-04-16T11:17:21.350Z,25.03
2019-04-16T11:19:52.637Z,23.73
2019-04-16T11:22:16.711Z,25.07
2019-04-16T11:24:43.584Z,22.93
2019-04-16T11:27:10.493Z,23.23
2019-04-16T11:29:38.361Z,24.40
2019-04-16T11:32:05.836Z,23.13
2019-04-16T11:34:32.559Z,21.60
2019-04-16T11:36:59.217Z,19.87
2019-04-16T11:39:25.890Z,22.17
2019-04-16T11:41:52.657Z,19.57
2019-04-16T11:44:19.403Z,20.80
2019-04-16T11:46:46.370Z,20.73
2019-04-16T11:49:13.180Z,17.30
2019-04-16T11:51:39.920Z,20.37
2019-04-16T11:54:06.503Z,19.10
2019-04-16T11:56:33.169Z,18.63
2019-04-16T11:59:00.328Z,19.87
2019-04-16T12:01:29.136Z,20.57
2019-04-16T12:04:17.002Z,16.53
2019-04-16T12:06:45.953Z,15.70
2019-04-16T12:09:14.876Z,17.00
2019-04-16T12:11:46.903Z,18.47
2019-04-16T12:14:34.637Z,18.27
2019-04-16T12:17:19.318Z,16.23
2019-04-16T12:19:53.584Z,17.20
2019-04-16T12:22:38.790Z,17.27
2019-04-16T12:25:13.762Z,17.70
2019-04-16T12:27:42.961Z,19.07
2019-04-16T12:30:12.090Z,18.20
2019-04-16T12:32:40.779Z,17.53
2019-04-16T12:35:18.410Z,19.90
2019-04-16T12:38:03.904Z,16.77
2019-04-16T12:40:44.550Z,15.33
2019-04-16T12:43:15.977Z,15.23
2019-04-16T12:45:53.181Z,15.23
2019-04-16T12:48:49.994Z,16.07
2019-04-16T12:51:18.582Z,18.30
2019-04-16T12:53:56.111Z,15.80
2019-04-16T12:56:41.951Z,15.43
2019-04-16T12:59:23.181Z,15.40
2019-04-16T13:01:52.038Z,15.43
2019-04-16T13:04:20.718Z,14.27
2019-04-16T13:06:52.419Z,14.93
2019-04-16T13:09:27.979Z,15.07
2019-04-16T13:11:59.259Z,14.90
2019-04-16T13:14:30.720Z,19.40
2019-04-16T13:17:06.073Z,16.20
2019-04-16T13:19:39.077Z,13.87
2019-04-16T13:22:08.760Z,15.73
2019-04-16T13:24:40.329Z,22.13
2019-04-16T13:27:08.903Z,13.83
2019-04-16T13:29:35.562Z,14.43
2019-04-16T13:32:02.453Z,15.63
2019-04-16T13:34:29.516Z,14.40
2019-04-16T13:36:59.371Z,18.03
2019-04-16T13:39:32.650Z,15.27
2019-04-16T13:41:59.646Z,15.33
2019-04-16T13:44:37.611Z,15.23
2019-04-16T13:47:05.980Z,14.57
2019-04-16T13:49:51.400Z,15.03
2019-04-16T13:52:20.410Z,15.43
2019-04-16T13:54:51.590Z,13.93
2019-04-16T13:57:23.246Z,13.73
2019-04-16T14:00:04.333Z,14.00
2019-04-16T14:02:41.656Z,12.20
2019-04-16T14:05:10.852Z,14.63
2019-04-16T14:07:37.333Z,13.93
2019-04-16T14:10:05.419Z,16.27
2019-04-16T14:12:41.680Z,15.50
2019-04-16T14:15:00.885Z,18.50
2019-04-16T14:17:28.477Z,24.17
2019-04-16T14:19:55.220Z,22.80
2019-04-16T14:22:24.621Z,22.53
2019-04-16T14:24:53.218Z,22.50
2019-04-16T14:27:19.932Z,21.73
2019-04-16T14:29:46.672Z,22.53
2019-04-16T14:32:13.509Z,21.77
2019-04-16T14:34:49.588Z,22.40
2019-04-16T14:37:16.614Z,20.67
2019-04-16T14:39:51.649Z,23.57
2019-04-16T14:42:19.159Z,23.20
2019-04-16T14:45:07.496Z,26.60
2019-04-16T14:47:37.849Z,21.80
2019-04-16T14:50:04.914Z,25.27
2019-04-16T14:52:31.550Z,24.57
2019-04-16T14:55:00.997Z,24.70
2019-04-16T14:57:28.196Z,25.53
2019-04-16T14:59:59.857Z,25.13
2019-04-16T15:02:45.559Z,24.37
2019-04-16T15:05:17.130Z,25.10
2019-04-16T15:07:48.645Z,25.13
2019-04-16T15:10:20.218Z,25.10
2019-04-16T15:12:49.076Z,26.50
2019-04-16T15:15:21.391Z,23.90
2019-04-16T15:17:50.109Z,24.87
2019-04-16T15:20:24.544Z,23.07
2019-04-16T15:23:09.778Z,23.40
2019-04-16T15:25:55.130Z,22.90
2019-04-16T15:28:26.472Z,22.67
2019-04-16T15:31:06.043Z,20.93
2019-04-16T15:33:35.694Z,22.63
2019-04-16T15:36:08.103Z,21.53
2019-04-16T15:38:44.165Z,20.63
2019-04-16T15:41:13.377Z,21.20
2019-04-16T15:43:56.369Z,22.20
2019-04-16T15:46:28.077Z,21.37
2019-04-16T15:49:05.554Z,22.13
2019-04-16T15:51:37.203Z,23.07
2019-04-16T15:54:08.665Z,22.47
2019-04-16T15:56:49.660Z,22.50
2019-04-16T15:59:18.429Z,20.47
2019-04-16T16:02:03.702Z,22.87
2019-04-16T16:04:35.417Z,20.93
2019-04-16T16:07:07.793Z,22.60
2019-04-16T16:09:37.526Z,23.47
2019-04-16T16:12:10.285Z,22.57
2019-04-16T16:14:38.722Z,23.40
2019-04-16T16:17:04.911Z,22.67
2019-04-16T16:19:31.815Z,23.30
2019-04-16T16:22:00.419Z,24.20
2019-04-16T16:24:28.975Z,23.60
2019-04-16T16:26:55.607Z,25.07
2019-04-16T16:29:22.378Z,26.17
2019-04-16T16:31:52.077Z,22.33
2019-04-16T16:34:19.473Z,21.87
2019-04-16T16:36:46.230Z,21.87
2019-04-16T16:39:14.176Z,21.87
2019-04-16T16:41:46.227Z,18.57
2019-04-16T16:44:12.286Z,16.53
2019-04-16T16:46:58.489Z,17.77
2019-04-16T16:49:25.645Z,16.63
2019-04-16T16:52:09.567Z,15.57
2019-04-16T16:54:36.427Z,16.27
2019-04-16T16:57:08.276Z,18.17
2019-04-16T16:59:52.320Z,15.87
2019-04-16T17:02:22.822Z,16.60
2019-04-16T17:04:57.590Z,15.60
2019-04-16T17:07:24.304Z,15.07
2019-04-16T17:09:52.207Z,16.60
2019-04-16T17:12:18.975Z,16.10
2019-04-16T17:14:45.779Z,21.07
2019-04-16T17:17:14.908Z,23.50
2019-04-16T17:19:41.243Z,18.63
2019-04-16T17:22:07.941Z,17.77
2019-04-16T17:24:34.803Z,14.70
2019-04-16T17:27:01.549Z,16.03
2019-04-16T17:29:29.389Z,15.87
2019-04-16T17:31:56.231Z,16.00
2019-04-16T17:34:23.076Z,16.47
2019-04-16T17:36:50.273Z,14.30
2019-04-16T17:39:32.550Z,16.93
2019-04-16T17:42:07.327Z,16.50
2019-04-16T17:44:55.916Z,15.07
2019-04-16T17:47:32.339Z,16.43
2019-04-16T17:50:17.329Z,14.93
2019-04-16T17:52:45.987Z,14.63
2019-04-16T17:55:14.656Z,13.73
2019-04-16T17:57:49.397Z,13.77
2019-04-16T18:00:23.946Z,13.67
2019-04-16T18:03:09.246Z,13.27
2019-04-16T18:05:46.955Z,13.47
2019-04-16T18:08:27.501Z,14.10
2019-04-16T18:11:02.081Z,14.53
2019-04-16T18:13:32.260Z,15.30
2019-04-16T18:16:06.947Z,14.53
2019-04-16T18:18:36.737Z,13.57
2019-04-16T18:21:20.647Z,13.20
2019-04-16T18:23:58.471Z,13.37
2019-04-16T18:26:39.167Z,13.93
2019-04-16T18:29:07.951Z,14.30
2019-04-16T18:31:39.400Z,14.33
2019-04-16T18:34:10.667Z,15.30
2019-04-16T18:37:06.049Z,13.47
2019-04-16T18:39:37.438Z,13.47
2019-04-16T18:42:14.153Z,13.53
2019-04-16T18:44:59.410Z,11.47
2019-04-16T18:47:45.190Z,13.60
2019-04-16T18:50:22.520Z,12.60
2019-04-16T18:53:00.359Z,12.47
2019-04-16T18:55:29.740Z,11.03
2019-04-16T18:57:58.265Z,11.20
2019-04-16T19:00:37.242Z,11.83
2019-04-16T19:03:04.455Z,10.10
2019-04-16T19:05:31.446Z,9.93
2019-04-16T19:08:00.168Z,9.23
2019-04-16T19:10:27.126Z,8.47
2019-04-16T19:12:54.230Z,8.50
2019-04-16T19:15:21.025Z,8.77
2019-04-16T19:17:47.693Z,6.43
2019-04-16T19:20:26.707Z,8.63
2019-04-16T19:22:53.560Z,6.67
2019-04-16T19:25:20.345Z,6.17
2019-04-16T19:27:49.037Z,14.60
2019-04-16T19:30:17.180Z,6.73
2019-04-16T19:32:44.080Z,6.17
2019-04-16T19:35:16.911Z,5.17
2019-04-16T19:37:39.624Z,5.00
2019-04-16T19:40:06.896Z,5.20
2019-04-16T19:42:33.822Z,5.13
2019-04-16T19:45:02.444Z,4.87
2019-04-16T19:47:29.328Z,5.20
2019-04-16T19:49:56.217Z,4.13
2019-04-16T19:52:23.668Z,4.03
2019-04-16T19:54:51.644Z,5.10
2019-04-16T19:57:18.544Z,5.03
2019-04-16T19:59:46.633Z,5.27
2019-04-16T20:02:17.625Z,5.10
2019-04-16T20:04:45.377Z,4.63
2019-04-16T20:07:12.708Z,4.67
2019-04-16T20:09:41.637Z,4.30
2019-04-16T20:12:08.684Z,3.47
2019-04-16T20:14:36.479Z,3.73
2019-04-16T20:17:05.254Z,4.10
2019-04-16T20:19:32.136Z,3.80
2019-04-16T20:21:59.166Z,4.47
2019-04-16T20:24:27.159Z,3.90
2019-04-16T20:26:53.894Z,3.90
2019-04-16T20:29:20.610Z,4.07
2019-04-16T20:31:49.095Z,4.30
2019-04-16T20:34:18.033Z,3.23
2019-04-16T20:36:44.726Z,3.00
2019-04-16T20:39:11.354Z,3.40
2019-04-16T20:41:38.536Z,3.50
2019-04-16T20:44:08.545Z,3.07
2019-04-16T20:46:33.891Z,3.93
2019-04-16T20:49:08.771Z,3.50
2019-04-16T20:51:29.128Z,2.97
2019-04-16T20:53:57.704Z,3.60
2019-04-16T20:56:24.459Z,3.33
2019-04-16T20:58:51.131Z,3.33
2019-04-16T21:01:32.748Z,3.40
2019-04-16T21:04:04.681Z,3.10
2019-04-16T21:06:26.534Z,3.43
2019-04-16T21:08:56.080Z,3.70
2019-04-16T21:11:22.832Z,3.23
2019-04-16T21:13:51.356Z,3.23
2019-04-16T21:16:17.998Z,3.37
2019-04-16T21:18:44.788Z,3.93
2019-04-16T21:21:11.713Z,3.57
2019-04-16T21:23:38.368Z,3.37
2019-04-16T21:26:04.988Z,3.90
2019-04-16T21:28:42.507Z,4.10
2019-04-16T21:31:12.987Z,3.37
2019-04-16T21:33:41.607Z,5.13
2019-04-16T21:36:10.225Z,4.17
2019-04-16T21:38:42.311Z,5.27
2019-04-16T21:41:10.055Z,4.67
2019-04-16T21:43:39.590Z,5.00
2019-04-16T21:46:07.196Z,4.90
2019-04-16T21:48:35.761Z,4.70
2019-04-16T21:51:02.536Z,4.93
2019-04-16T21:53:29.346Z,6.97
2019-04-16T21:55:56.074Z,6.67
2019-04-16T21:58:22.737Z,6.17
2019-04-16T22:00:51.574Z,6.43
2019-04-16T22:03:23.546Z,7.47
2019-04-16T22:05:50.243Z,8.37
2019-04-16T22:08:17.116Z,8.80
2019-04-16T22:10:46.568Z,9.13
2019-04-16T22:13:12.382Z,9.07
2019-04-16T22:15:39.446Z,9.37
2019-04-16T22:18:08.784Z,8.37
2019-04-16T22:20:35.796Z,10.23
2019-04-16T22:23:03.332Z,8.43
2019-04-16T22:25:29.927Z,9.80
2019-04-16T22:27:56.620Z,8.53
2019-04-16T22:30:23.446Z,7.73
2019-04-16T22:32:50.181Z,8.53
2019-04-16T22:35:16.785Z,8.83
2019-04-16T22:37:43.314Z,10.13
2019-04-16T22:40:30.355Z,10.27
2019-04-16T22:43:06.313Z,9.53
2019-04-16T22:45:35.063Z,11.27
2019-04-16T22:48:01.790Z,11.30
2019-04-16T22:50:28.612Z,12.23
2019-04-16T22:52:55.235Z,10.67
2019-04-16T22:55:24.915Z,11.63
2019-04-16T22:57:51.544Z,11.40
2019-04-16T23:00:35.643Z,15.40
2019-04-16T23:03:03.766Z,13.07
2019-04-16T23:05:30.807Z,14.37
2019-04-16T23:07:58.658Z,15.30
2019-04-16T23:10:25.352Z,13.63
2019-04-16T23:12:52.058Z,14.87
2019-04-16T23:15:18.950Z,14.00
2019-04-16T23:17:46.701Z,15.63
2019-04-16T23:20:28.155Z,14.67
2019-04-16T23:22:43.613Z,15.97
2019-04-16T23:25:11.935Z,16.10
2019-04-16T23:27:38.841Z,17.60
2019-04-16T23:30:05.688Z,17.50
2019-04-16T23:32:32.438Z,17.80
2019-04-16T23:34:59.315Z,20.70
2019-04-16T23:37:26.002Z,19.60
2019-04-16T23:39:52.626Z,20.10
2019-04-16T23:42:19.820Z,19.73
2019-04-16T23:44:51.264Z,20.53
2019-04-16T23:47:31.910Z,20.57
2019-04-16T23:50:03.283Z,23.33
2019-04-16T23:52:44.088Z,21.77
2019-04-16T23:55:16.332Z,22.87
2019-04-16T23:57:59.772Z,24.93
